Haywood, Virginia
Current Conditions -  °F | °C
As of 3:55 AM on Wednesday 26 Nov 2014 (Local Time) from KOMH Reporting Station
Moderate Rain Moderate Rain  
Wind Chill: 45°   Ceiling: 4300
Heat Index: 45°   Visibility: 7mi
Dew Point: 41°   Wind: 3mph
Humidity: 87%   Direction: 20°NNE
Pressure: 30.06"   Gusts: NA
Location:  38.45°N, 78.25°W
Report Text: KOMH 260855Z AUTO 02003KT 7SM RA SCT034 BKN043 OVC050 07/05 A3006 RMK AO2 P0006
Loading
Personal Weather Stations






























Interactive Weather Map New forecast layout! Learn more

10-Day Weather Forecast

Advertisements
Track Severe Weather on mobile